This is the latest recevied weather packets stored in our database for station/object W3JBS-2. If no packets are shown the sender has not sent any weather packets the latest 10 day(s).
| Time | Temp. | Humidity | Pressure | Rain* | Wind** | Luminosity | Snow |
|---|---|---|---|---|---|---|---|
| 1777649817 | 13.89° C | 49% | 1013.6 hPa | 0 mm | - | 1659 W/m² | - |
| 1777648917 | 13.33° C | 47% | 1013.7 hPa | 0 mm | - | 1654 W/m² | - |
| 1777648017 | 13.33° C | 45% | 1013.7 hPa | 0 mm | - | 1649 W/m² | - |
| 1777647119 | 13.33° C | 51% | 1013.8 hPa | 0 mm | - | 1649 W/m² | - |
| 1777646218 | 12.22° C | 53% | 1013.9 hPa | 0 mm | - | 1649 W/m² | - |
| 1777645318 | 12.22° C | 58% | 1013.9 hPa | 0 mm | - | 1631 W/m² | - |
| 1777644417 | 11.67° C | 58% | 1014.1 hPa | 0 mm | - | 1622 W/m² | - |
| 1777643517 | 11.67° C | 64% | 1014.1 hPa | 0 mm | - | 1621 W/m² | - |
| 1777642617 | 11.11° C | 62% | 1014.2 hPa | 0 mm | - | 1615 W/m² | - |
| 1777641717 | 11.11° C | 61% | 1014.2 hPa | 0 mm | - | 1619 W/m² | - |
| 1777640819 | 10.56° C | 63% | 1014 hPa | 0 mm | - | 1621 W/m² | - |
| 1777639918 | 10.56° C | 66% | 1014 hPa | 0 mm | - | 1617 W/m² | - |
| 1777639017 | 10° C | 67% | 1014.2 hPa | 0 mm | - | 1621 W/m² | - |
| 1777638117 | 9.44° C | 72% | 1014.1 hPa | 0 mm | - | 1622 W/m² | - |
| 1777637217 | 8.89° C | 73% | 1014.1 hPa | 0 mm | - | 1635 W/m² | - |
| 1777636317 | 8.33° C | 77% | 1014.2 hPa | 0 mm | - | 1656 W/m² | - |
| 1777635416 | 7.78° C | 80% | 1014.2 hPa | 0 mm | - | 1675 W/m² | - |
| 1777634516 | 6.67° C | 83% | 1014.2 hPa | 0 mm | - | 1693 W/m² | - |
| 1777633617 | 6.11° C | 85% | 1014 hPa | 0 mm | - | 1707 W/m² | - |
| 1777632717 | 5° C | 86% | 1013.9 hPa | 0 mm | - | 1721 W/m² | - |
| 1777631817 | 4.44° C | 86% | 1014 hPa | 0 mm | - | 1730 W/m² | - |
| 1777630917 | 3.89° C | 85% | 1013.9 hPa | 0 mm | - | 1737 W/m² | - |
| 1777630016 | 3.89° C | 85% | 1013.8 hPa | 0 mm | - | 1737 W/m² | - |
| 1777629116 | 3.89° C | 85% | 1013.7 hPa | 0 mm | - | 1737 W/m² | - |
| 1777628217 | 3.89° C | 84% | 1013.7 hPa | 0 mm | - | 1737 W/m² | - |
* Rain latest hour (hover to see other rain measurements)
** Current wind speed in m/s (hover to see current wind gust speed)